Terminal Aerodrome Forecast
Issued by NWS

Home | Current Version | Previous Version | Text Only | Print | Product List | Glossary On
Versions: 1 2 3 4 5 6 7 8 9 10 11 12 13 14 15
466
FTUS45 KPSR 251121
TAFBLH
TAF
KBLH 251121Z 2512/2612 26008KT P6SM FEW200
     FM252200 24015G25KT P6SM SKC
     FM260600 23010KT P6SM SKC=

USA.gov is the U.S. government's official web portal to all federal, state and local government web resources and services.